Time;durP1;ratioP1;P1;durP2;ratioP2;P2;SDS_P1;SDS_P2;PMS_P1;PMS_P2;Temp;Humidity;BMP_temperature;BMP_pressure;BME280_temperature;BME280_humidity;BME280_pressure;Samples;Min_cycle;Max_cycle;Signal;HPM_P1;HPM_P2
2024/01/13 00:01:26;;;;;;;75.75;40.35;;;;;;;-1.65;83.51;98185.50;10318926;28;20088;-47
2024/01/13 00:06:26;;;;;;;81.93;42.15;;;;;;;-1.96;84.02;98132.97;10318013;28;20034;-48
2024/01/13 00:11:24;;;;;;;;;;;;;;;-1.62;83.75;98184.78;10318829;28;20096;-47
2024/01/13 00:16:23;;;;;;;78.20;41.67;;;;;;;-1.59;83.14;98179.84;10318228;28;20695;-49
2024/01/13 00:21:22;;;;;;;79.85;44.03;;;;;;;-1.66;83.53;98146.47;10318140;28;20116;-47
2024/01/13 00:26:22;;;;;;;83.60;42.30;;;;;;;-1.77;83.97;98129.75;10318436;28;20037;-47
2024/01/13 00:31:21;;;;;;;73.05;40.05;;;;;;;-1.46;82.97;98160.22;10317612;28;20459;-48
2024/01/13 00:36:20;;;;;;;75.68;41.20;;;;;;;-1.41;82.85;98191.00;10316005;28;20807;-48
2024/01/13 00:41:19;;;;;;;99.88;50.92;;;;;;;-1.61;82.82;98171.25;10315648;28;20514;-47
2024/01/13 00:46:18;;;;;;;79.22;41.03;;;;;;;-1.60;82.74;98170.47;10318742;28;20053;-47
2024/01/13 00:51:17;;;;;;;80.50;38.08;;;;;;;-1.71;82.35;98158.03;10324531;28;20036;-48
2024/01/13 00:56:16;;;;;;;72.40;36.67;;;;;;;-1.71;81.78;98185.16;10325527;28;20033;-47
2024/01/13 01:01:15;;;;;;;75.68;40.90;;;;;;;-1.76;82.41;98171.31;10325612;28;20033;-48
2024/01/13 01:06:14;;;;;;;91.50;41.92;;;;;;;-1.83;80.61;98174.31;10326256;28;20061;-49
2024/01/13 01:11:13;;;;;;;71.43;36.92;;;;;;;-2.04;80.65;98148.59;10324436;28;20072;-48
2024/01/13 01:16:13;;;;;;;60.70;30.40;;;;;;;-2.23;79.91;98151.81;10324290;28;20037;-48
2024/01/13 01:21:14;;;;;;;43.03;22.40;;;;;;;-2.38;78.89;98172.13;10325135;28;20180;-47
2024/01/13 01:26:13;;;;;;;49.42;23.35;;;;;;;-2.44;77.40;98166.72;10324094;28;20069;-48
2024/01/13 01:31:12;;;;;;;42.33;22.35;;;;;;;-2.48;77.12;98173.28;10324787;28;20419;-47
2024/01/13 01:36:11;;;;;;;;;;;;;;;-2.60;75.96;98176.00;10325029;28;20057;-47
2024/01/13 01:41:16;;;;;;;52.20;27.92;;;;;;;-2.81;72.88;98169.72;10323570;28;19913;-49
2024/01/13 01:46:18;;;;;;;39.70;21.38;;;;;;;-3.14;75.08;98139.91;10323896;28;20065;-48
2024/01/13 01:51:18;;;;;;;41.95;21.30;;;;;;;-3.29;74.10;98133.94;10323703;28;20072;-48
2024/01/13 01:56:22;;;;;;;44.15;22.02;;;;;;;-3.12;73.57;98178.06;10323035;28;20065;-47
2024/01/13 02:01:23;;;;;;;37.45;19.27;;;;;;;-3.87;74.47;98050.19;10323207;28;20112;-49
2024/01/13 02:06:22;;;;;;;31.25;16.67;;;;;;;-3.28;75.39;98155.97;10323672;28;20065;-48
2024/01/13 02:11:21;;;;;;;;;;;;;;;-3.39;75.34;98152.81;10323173;28;20068;-47
2024/01/13 02:16:20;;;;;;;27.10;14.23;;;;;;;-3.42;75.50;98164.44;10322278;28;20286;-48
2024/01/13 02:21:19;;;;;;;32.05;17.42;;;;;;;-3.43;75.90;98153.41;10322817;28;20033;-47
2024/01/13 02:26:18;;;;;;;40.08;19.10;;;;;;;-4.78;75.15;97937.44;10321999;28;20060;-47
2024/01/13 02:31:17;;;;;;;39.67;19.08;;;;;;;-3.49;73.43;98175.88;10317215;28;20031;-48
2024/01/13 02:36:16;;;;;;;;;;;;;;;-3.57;74.65;98169.47;10321601;28;20124;-48
2024/01/13 02:41:15;;;;;;;41.08;19.95;;;;;;;-3.78;71.35;98171.59;10321843;28;20016;-50
2024/01/13 02:46:14;;;;;;;38.25;19.42;;;;;;;-4.00;73.44;98171.88;10321610;28;20791;-48
2024/01/13 02:51:15;;;;;;;49.45;24.20;;;;;;;-4.46;72.83;98103.16;10321489;28;20092;-48
2024/01/13 02:56:15;;;;;;;35.42;20.75;;;;;;;-3.98;73.60;98221.03;10321742;28;20068;-48
2024/01/13 03:01:14;;;;;;;35.13;18.02;;;;;;;-4.01;72.05;98226.78;10321269;28;20057;-48
2024/01/13 03:06:13;;;;;;;40.95;18.30;;;;;;;-3.97;74.96;98213.53;10321189;28;20099;-48
2024/01/13 03:11:12;;;;;;;42.50;19.50;;;;;;;-3.70;75.95;98222.75;10320163;28;20622;-48
2024/01/13 03:16:12;;;;;;;;;;;;;;;-3.45;77.15;98210.81;10320449;28;20486;-48
2024/01/13 03:21:11;;;;;;;38.70;18.75;;;;;;;-3.22;77.15;98203.72;10321011;28;20367;-49
2024/01/13 03:26:10;;;;;;;53.25;26.00;;;;;;;-3.06;76.36;98208.91;10319875;28;20475;-47
2024/01/13 03:31:09;;;;;;;;;;;;;;;-3.05;75.93;98197.97;10320785;28;20072;-48
2024/01/13 03:36:09;;;;;;;51.60;28.50;;;;;;;-3.37;75.94;98155.44;10320889;28;19917;-48
2024/01/13 03:41:08;;;;;;;56.67;27.95;;;;;;;-3.36;75.36;98173.31;10318554;28;20061;-50
2024/01/13 03:46:07;;;;;;;53.88;25.90;;;;;;;-3.21;75.92;98200.38;10320088;28;20061;-48
2024/01/13 03:51:06;;;;;;;55.88;26.83;;;;;;;-3.16;76.85;98211.69;10320632;28;20025;-48
2024/01/13 03:56:05;;;;;;;57.15;27.42;;;;;;;-3.31;76.11;98185.41;10319595;28;20387;-48
2024/01/13 04:01:04;;;;;;;70.28;33.60;;;;;;;-3.72;76.39;98130.50;10318846;28;20105;-48
2024/01/13 04:06:03;;;;;;;;;;;;;;;-3.27;77.51;98217.75;10319843;28;20068;-48
2024/01/13 04:11:08;;;;;;;82.45;38.13;;;;;;;-3.21;77.31;98223.22;10319835;28;20019;-49
2024/01/13 04:16:08;;;;;;;83.45;38.72;;;;;;;-3.22;76.78;98224.88;10319120;28;20073;-48
2024/01/13 04:21:07;;;;;;;76.45;37.33;;;;;;;-3.58;76.52;98171.13;10321384;28;20056;-48
2024/01/13 04:26:07;;;;;;;78.55;36.95;;;;;;;-3.68;76.84;98160.34;10324503;28;20136;-48
2024/01/13 04:31:07;;;;;;;68.38;34.10;;;;;;;-3.60;75.94;98181.94;10326604;28;20124;-48
2024/01/13 04:36:06;;;;;;;67.70;34.05;;;;;;;-3.51;75.98;98212.09;10326508;28;20060;-49
2024/01/13 04:41:05;;;;;;;70.80;34.22;;;;;;;-3.60;77.58;98202.25;10326525;28;20068;-48
2024/01/13 04:46:06;;;;;;;68.28;35.10;;;;;;;-3.44;77.46;98219.28;10325048;28;20064;-48
2024/01/13 04:51:05;;;;;;;73.10;34.67;;;;;;;-3.67;76.80;98172.22;10324014;28;20069;-48
2024/01/13 04:56:04;;;;;;;68.22;34.50;;;;;;;-3.40;77.90;98217.03;10321998;28;20546;-49
2024/01/13 05:01:03;;;;;;;69.20;33.88;;;;;;;-3.83;77.97;98135.81;10325463;28;20527;-50
2024/01/13 05:06:02;;;;;;;;;;;;;;;-3.29;77.60;98214.28;10324541;28;20061;-46
2024/01/13 05:11:01;;;;;;;58.00;28.23;;;;;;;-3.28;77.65;98200.78;10324363;28;20334;-46
2024/01/13 05:16:00;;;;;;;66.68;33.60;;;;;;;-3.77;75.90;98126.00;10325510;28;20034;-47
2024/01/13 05:20:59;;;;;;;58.55;33.25;;;;;;;-3.66;75.89;98167.25;10324692;28;20120;-46
2024/01/13 05:25:58;;;;;;;166.15;79.40;;;;;;;-3.59;76.81;98198.94;10324699;28;20824;-47
2024/01/13 05:30:57;;;;;;;106.47;51.03;;;;;;;-3.89;76.51;98188.66;10324585;28;20041;-47
2024/01/13 05:35:56;;;;;;;67.65;32.88;;;;;;;-4.45;77.08;98138.69;10321780;28;20047;-47
2024/01/13 05:40:55;;;;;;;64.22;31.40;;;;;;;-4.28;77.85;98187.91;10324180;28;20105;-47
2024/01/13 05:45:54;;;;;;;87.43;45.60;;;;;;;-4.50;78.33;98169.59;10324137;28;20069;-48
2024/01/13 05:50:52;;;;;;;;;;;;;;;-4.44;78.53;98201.25;10324693;28;20039;-49
2024/01/13 05:55:51;;;;;;;67.10;33.35;;;;;;;-4.43;78.36;98213.13;10323881;28;19967;-50
2024/01/13 06:00:50;;;;;;;101.53;47.25;;;;;;;-4.47;78.93;98217.91;10322922;28;20032;-48
2024/01/13 06:05:49;;;;;;;112.53;56.78;;;;;;;-4.62;78.54;98195.88;10323242;28;20022;-49
2024/01/13 06:10:48;;;;;;;;;;;;;;;-4.53;78.59;98218.38;10323056;28;20054;-48
2024/01/13 06:15:47;;;;;;;84.82;42.58;;;;;;;-4.63;78.60;98193.22;10321021;28;19948;-49
2024/01/13 06:20:46;;;;;;;87.55;42.85;;;;;;;-4.66;79.17;98193.03;10316608;28;20136;-49
2024/01/13 06:25:45;;;;;;;91.97;45.92;;;;;;;-4.61;78.52;98207.78;10322027;28;20057;-49
2024/01/13 06:30:43;;;;;;;;;;;;;;;-4.52;77.92;98216.72;10322986;28;20903;-48
2024/01/13 06:35:42;;;;;;;91.93;45.83;;;;;;;-4.86;78.05;98174.91;10322074;28;19956;-49
2024/01/13 06:40:41;;;;;;;;;;;;;;;-4.65;79.17;98225.19;10322345;28;20128;-50
2024/01/13 06:45:40;;;;;;;166.07;76.47;;;;;;;-4.83;79.37;98180.16;10318654;28;19917;-50
2024/01/13 06:50:39;;;;;;;;;;;;;;;-4.59;78.58;98239.91;10321107;28;20530;-48
2024/01/13 06:55:38;;;;;;;63.25;34.92;;;;;;;-4.96;80.29;98166.59;10321376;28;19940;-49
2024/01/13 07:00:39;;;;;;;;;;;;;;;-4.62;80.69;98241.44;10320114;28;20082;-48
2024/01/13 07:05:37;;;;;;;88.57;43.35;;;;;;;-4.56;80.29;98225.75;10320233;28;19956;-49
2024/01/13 07:10:36;;;;;;;76.80;39.55;;;;;;;-4.36;81.14;98221.13;10320816;28;20040;-48
2024/01/13 07:15:35;;;;;;;83.07;43.28;;;;;;;-3.87;78.77;98247.06;10319313;28;20102;-50
2024/01/13 07:20:34;;;;;;;85.78;45.55;;;;;;;-3.63;80.08;98232.50;10319614;28;20112;-48
2024/01/13 07:25:33;;;;;;;;;;;;;;;-3.27;78.87;98248.22;10319586;28;20068;-46
2024/01/13 07:30:32;;;;;;;132.93;71.15;;;;;;;-3.35;75.80;98212.22;10317412;28;19920;-47
2024/01/13 07:35:31;;;;;;;110.15;60.83;;;;;;;-2.97;77.04;98239.03;10318891;28;20027;-46
2024/01/13 07:40:30;;;;;;;88.10;43.63;;;;;;;-5.75;75.05;97767.06;10319063;28;20032;-47
2024/01/13 07:45:29;;;;;;;117.22;62.05;;;;;;;-2.94;76.60;98224.88;10318451;28;20033;-48
2024/01/13 07:50:28;;;;;;;109.70;60.88;;;;;;;-2.85;74.80;98203.31;10317769;28;20403;-49
2024/01/13 07:55:27;;;;;;;101.63;56.63;;;;;;;-2.71;74.45;98232.94;10323734;28;20033;-47
2024/01/13 08:00:27;;;;;;;128.30;67.07;;;;;;;-2.31;74.23;98230.19;10319820;28;20034;-48
2024/01/13 08:05:26;;;;;;;115.03;64.78;;;;;;;-2.33;73.58;98207.22;10327034;28;20061;-48
2024/01/13 08:10:25;;;;;;;116.55;62.00;;;;;;;-2.05;71.92;98211.31;10327717;28;20021;-48
2024/01/13 08:15:24;;;;;;;154.60;85.07;;;;;;;-2.92;72.50;98020.16;10324719;28;20033;-48
2024/01/13 08:20:23;;;;;;;130.48;68.78;;;;;;;-1.56;70.88;98220.72;10326933;28;20588;-48
2024/01/13 08:25:21;;;;;;;134.07;75.35;;;;;;;-2.29;70.90;98137.06;10327587;28;20620;-48
2024/01/13 08:30:20;;;;;;;92.05;51.95;;;;;;;-2.11;72.57;98153.34;10326991;28;20029;-48
2024/01/13 08:35:19;;;;;;;71.30;38.47;;;;;;;-1.48;71.72;98199.13;10326869;28;20045;-48
2024/01/13 08:40:19;;;;;;;97.00;53.53;;;;;;;-1.25;71.41;98168.09;10326836;28;20053;-49
2024/01/13 08:45:23;;;;;;;117.05;66.40;;;;;;;-0.96;67.37;98144.91;10326452;28;20053;-47
2024/01/13 08:50:25;;;;;;;124.13;72.38;;;;;;;-0.67;67.87;98195.66;10324619;28;20116;-49
2024/01/13 08:55:24;;;;;;;111.25;60.80;;;;;;;-0.69;65.86;98196.38;10325821;28;20072;-48
2024/01/13 09:00:23;;;;;;;99.40;52.83;;;;;;;-1.09;67.25;98140.88;10322191;28;20105;-46
2024/01/13 09:05:22;;;;;;;103.18;53.45;;;;;;;-0.89;66.52;98178.41;10325440;28;20064;-46
2024/01/13 09:10:21;;;;;;;99.07;48.35;;;;;;;-0.87;68.32;98156.44;10322960;28;20041;-47
2024/01/13 09:15:20;;;;;;;82.18;44.08;;;;;;;-0.24;69.30;98174.81;10325407;28;20025;-47
2024/01/13 09:20:19;;;;;;;86.50;48.05;;;;;;;0.09;65.92;98151.69;10325160;28;20060;-48
2024/01/13 09:25:18;;;;;;;81.15;44.58;;;;;;;0.30;63.49;98145.84;10325102;28;20067;-47
2024/01/13 09:30:17;;;;;;;87.13;48.08;;;;;;;-0.18;63.76;98062.88;10325433;28;20097;-47
2024/01/13 09:35:16;;;;;;;79.63;47.33;;;;;;;-0.01;62.11;98091.72;10324851;28;20040;-47
2024/01/13 09:40:17;;;;;;;86.85;51.85;;;;;;;-0.81;63.78;97946.97;10323724;28;20068;-47
2024/01/13 09:45:20;;;;;;;87.65;49.22;;;;;;;0.32;63.97;98119.56;10324843;28;20498;-47
2024/01/13 09:50:19;;;;;;;78.53;43.70;;;;;;;-0.64;60.29;98027.59;10324456;28;20126;-48
2024/01/13 09:55:19;;;;;;;74.25;40.50;;;;;;;-0.33;59.88;98054.53;10322999;28;20037;-47
2024/01/13 10:00:18;;;;;;;71.93;40.67;;;;;;;-0.10;60.85;98070.03;10324913;28;20782;-48
2024/01/13 10:05:17;;;;;;;66.88;36.22;;;;;;;0.20;60.63;98073.09;10325099;28;20075;-47
2024/01/13 10:10:17;;;;;;;61.70;36.83;;;;;;;0.13;57.58;98068.50;10319475;28;20399;-47
2024/01/13 10:15:17;;;;;;;54.60;29.35;;;;;;;-0.58;58.94;97965.81;10322136;28;20061;-47
2024/01/13 10:20:16;;;;;;;53.28;27.27;;;;;;;-0.14;56.80;98029.88;10322119;28;20060;-49
2024/01/13 10:25:15;;;;;;;48.15;24.92;;;;;;;-0.32;56.70;98004.38;10321970;28;20578;-51
2024/01/13 10:30:14;;;;;;;32.20;17.27;;;;;;;0.03;55.07;98052.78;10322596;28;20088;-49
2024/01/13 10:35:17;;;;;;;29.23;17.25;;;;;;;-1.74;55.11;97737.25;10321198;28;20065;-48
2024/01/13 10:40:16;;;;;;;27.15;17.10;;;;;;;-0.20;57.37;97987.13;10319435;28;20068;-48
2024/01/13 10:45:19;;;;;;;31.90;18.20;;;;;;;-0.16;57.20;97951.63;10320282;28;20068;-47
2024/01/13 10:50:18;;;;;;;38.92;22.70;;;;;;;0.21;53.49;98044.19;10321010;28;20744;-48
2024/01/13 10:55:18;;;;;;;44.63;29.08;;;;;;;0.02;52.45;98043.38;10320769;28;20075;-51
2024/01/13 11:00:17;;;;;;;28.80;16.42;;;;;;;0.17;57.28;98016.78;10321728;28;20064;-47
2024/01/13 11:05:18;;;;;;;28.63;15.73;;;;;;;0.47;56.74;98014.69;10320762;28;20548;-48
2024/01/13 11:10:23;;;;;;;33.90;17.30;;;;;;;0.71;57.74;98017.44;10317833;28;20116;-49
2024/01/13 11:15:39;;;;;;;24.73;15.80;;;;;;;0.70;55.74;97995.22;10318782;28;20100;-49
2024/01/13 11:21:01;;;;;;;29.75;15.77;;;;;;;0.94;57.13;98008.13;10320773;28;20112;-47
2024/01/13 11:26:00;;;;;;;32.17;18.58;;;;;;;0.90;55.19;98001.16;10318723;28;20096;-47
2024/01/13 11:31:00;;;;;;;32.30;18.25;;;;;;;0.90;54.61;98004.59;10319060;28;20071;-48
2024/01/13 11:35:59;;;;;;;35.15;17.98;;;;;;;0.69;53.98;97985.84;10318859;28;20073;-49
2024/01/13 11:40:58;;;;;;;27.17;17.02;;;;;;;0.58;56.93;97924.09;10319510;28;20049;-48
2024/01/13 11:45:58;;;;;;;29.50;17.58;;;;;;;1.09;57.23;97975.53;10320444;28;20071;-47
2024/01/13 11:50:57;;;;;;;28.90;17.77;;;;;;;1.26;58.04;97965.97;10319043;28;20577;-47
2024/01/13 11:55:57;;;;;;;29.77;17.25;;;;;;;1.32;55.58;97963.66;10319806;28;20077;-48
2024/01/13 12:00:56;;;;;;;27.98;16.35;;;;;;;-0.47;54.64;97679.16;10319133;28;20068;-48
2024/01/13 12:05:55;;;;;;;;;;;;;;;1.45;56.44;97959.00;10317488;28;20064;-46
2024/01/13 12:10:54;;;;;;;27.17;15.77;;;;;;;1.22;51.15;97946.19;10318659;28;20003;-46
2024/01/13 12:16:04;;;;;;;25.50;15.75;;;;;;;1.17;53.66;97928.97;10319617;28;20034;-48
2024/01/13 12:21:03;;;;;;;27.88;15.98;;;;;;;1.39;54.00;97936.66;10317590;28;20061;-47
2024/01/13 12:26:02;;;;;;;30.00;16.75;;;;;;;1.03;52.95;97892.66;10318841;28;20089;-47
2024/01/13 12:31:03;;;;;;;26.90;17.40;;;;;;;1.26;53.22;97930.19;10318905;28;20077;-48
2024/01/13 12:36:03;;;;;;;24.75;16.17;;;;;;;1.23;53.30;97912.19;10319098;28;20065;-48
2024/01/13 12:41:06;;;;;;;28.65;17.92;;;;;;;1.54;55.47;97941.47;10319353;28;20057;-47
2024/01/13 12:46:06;;;;;;;32.95;18.60;;;;;;;1.38;54.54;97870.97;10326357;28;20065;-47
2024/01/13 12:51:09;;;;;;;27.70;15.50;;;;;;;1.74;55.74;97912.38;10325525;28;20064;-47
2024/01/13 12:56:08;;;;;;;24.98;15.88;;;;;;;1.68;54.46;97896.78;10325858;28;20068;-47
2024/01/13 13:01:07;;;;;;;27.15;16.40;;;;;;;1.58;54.61;97861.47;10325548;28;20112;-47
2024/01/13 13:06:06;;;;;;;25.30;17.25;;;;;;;1.90;54.37;97911.25;10325377;28;20109;-47
2024/01/13 13:11:05;;;;;;;24.02;15.40;;;;;;;1.99;55.58;97914.91;10324927;28;20123;-48
2024/01/13 13:16:05;;;;;;;23.80;15.27;;;;;;;1.73;54.74;97877.34;10325204;28;20033;-48
2024/01/13 13:21:04;;;;;;;25.20;16.38;;;;;;;1.65;56.31;97853.19;10325345;28;20477;-50
2024/01/13 13:26:03;;;;;;;27.77;17.42;;;;;;;1.95;53.52;97906.28;10322975;28;20124;-48
2024/01/13 13:31:07;;;;;;;26.77;15.65;;;;;;;1.96;57.18;97921.66;10324818;28;20683;-47
2024/01/13 13:36:06;;;;;;;23.85;16.00;;;;;;;1.89;54.69;97888.16;10324193;28;20471;-47
2024/01/13 13:41:05;;;;;;;;;;;;;;;1.99;53.63;97912.38;10324047;28;20061;-49
2024/01/13 13:46:05;;;;;;;23.42;16.88;;;;;;;1.90;54.12;97887.31;10323837;28;19959;-50
2024/01/13 13:51:06;;;;;;;24.20;15.60;;;;;;;1.93;54.92;97851.63;10323710;28;20470;-47
2024/01/13 13:56:05;;;;;;;27.55;17.05;;;;;;;2.19;55.36;97895.16;10322461;28;20060;-47
2024/01/13 14:01:04;;;;;;;;;;;;;;;2.12;55.26;97897.50;10321512;28;20716;-48
2024/01/13 14:06:03;;;;;;;25.88;16.23;;;;;;;0.94;55.35;97695.56;10322996;28;20492;-49
2024/01/13 14:11:03;;;;;;;24.98;16.63;;;;;;;1.96;56.52;97888.41;10322794;28;20057;-49
2024/01/13 14:16:02;;;;;;;27.08;16.17;;;;;;;1.82;56.05;97881.06;10321755;28;20080;-49
2024/01/13 14:21:01;;;;;;;28.13;16.50;;;;;;;1.72;57.30;97867.09;10321053;28;20060;-49
2024/01/13 14:26:00;;;;;;;36.92;19.60;;;;;;;1.42;56.75;97815.72;10320886;28;20088;-48
2024/01/13 14:31:00;;;;;;;31.30;17.90;;;;;;;1.54;56.12;97890.31;10320462;28;20022;-47
2024/01/13 14:36:00;;;;;;;36.88;19.35;;;;;;;1.37;56.04;97881.16;10321976;28;20080;-47
2024/01/13 14:40:59;;;;;;;35.53;20.77;;;;;;;1.35;56.36;97875.09;10319880;28;20056;-47
2024/01/13 14:45:58;;;;;;;40.08;23.02;;;;;;;1.19;58.46;97879.63;10320866;28;20435;-49
2024/01/13 14:50:57;;;;;;;44.53;23.38;;;;;;;1.08;56.28;97880.91;10321696;28;20455;-47
2024/01/13 14:55:58;;;;;;;39.90;24.30;;;;;;;0.40;58.18;97824.63;10320728;28;20843;-48
2024/01/13 15:00:57;;;;;;;43.65;26.05;;;;;;;0.60;58.21;97881.63;10321377;28;20053;-47
2024/01/13 15:05:56;;;;;;;51.72;30.00;;;;;;;0.46;57.54;97883.63;10320117;28;20029;-48
2024/01/13 15:10:55;;;;;;;49.75;30.88;;;;;;;0.24;57.51;97865.66;10320384;28;20685;-49
2024/01/13 15:15:54;;;;;;;55.15;30.95;;;;;;;0.21;58.49;97865.56;10320199;28;20072;-50
2024/01/13 15:20:53;;;;;;;53.10;30.60;;;;;;;0.05;58.71;97870.03;10320549;28;20057;-48
2024/01/13 15:25:52;;;;;;;65.35;35.05;;;;;;;-0.06;58.78;97865.28;10319384;28;20041;-49
2024/01/13 15:30:52;;;;;;;60.10;33.47;;;;;;;-0.17;58.92;97885.22;10319850;28;20044;-47
2024/01/13 15:35:51;;;;;;;53.35;28.42;;;;;;;-0.41;59.23;97860.41;10319277;28;20103;-48
2024/01/13 15:40:50;;;;;;;46.20;25.17;;;;;;;-0.83;60.00;97827.13;10319311;28;20018;-47
2024/01/13 15:45:53;;;;;;;55.33;32.95;;;;;;;-0.54;60.30;97873.41;10319748;28;20033;-48
2024/01/13 15:50:52;;;;;;;65.47;36.65;;;;;;;-0.63;60.68;97885.75;10318944;28;20088;-47
2024/01/13 15:55:52;;;;;;;110.75;62.70;;;;;;;-0.82;60.94;97871.31;10317792;28;20109;-48
2024/01/13 16:00:51;;;;;;;48.80;29.55;;;;;;;-1.36;61.04;97848.47;10318360;28;20072;-49
2024/01/13 16:05:50;;;;;;;62.08;34.22;;;;;;;-1.57;62.32;97822.88;10318644;28;20499;-48
2024/01/13 16:10:49;;;;;;;;;;;;;;;-1.15;62.14;97891.88;10319921;28;20112;-50
2024/01/13 16:15:50;;;;;;;51.05;29.10;;;;;;;-1.38;63.23;97875.50;10320013;28;19920;-49
2024/01/13 16:20:49;;;;;;;49.88;28.48;;;;;;;-1.39;64.08;97894.16;10326453;28;20147;-48
2024/01/13 16:25:48;;;;;;;59.97;33.65;;;;;;;-1.57;63.83;97880.53;10327179;28;20901;-50
2024/01/13 16:30:47;;;;;;;57.08;30.92;;;;;;;-1.73;63.52;97900.13;10326959;28;20088;-48
2024/01/13 16:35:46;;;;;;;39.97;23.40;;;;;;;-1.82;64.30;97871.72;10325859;28;20105;-49
2024/01/13 16:40:45;;;;;;;34.63;21.02;;;;;;;-1.66;64.69;97889.47;10326005;28;20708;-48
2024/01/13 16:45:50;;;;;;;38.88;21.95;;;;;;;-1.98;63.16;97853.97;10326269;28;20116;-47
2024/01/13 16:50:49;;;;;;;50.58;26.40;;;;;;;-1.97;64.05;97850.59;10325375;28;20083;-51
2024/01/13 16:55:49;;;;;;;40.80;20.92;;;;;;;-2.15;64.79;97831.13;10326002;28;20029;-47
2024/01/13 17:00:48;;;;;;;40.90;24.52;;;;;;;-1.80;65.39;97894.66;10340987;28;20069;-47
2024/01/13 17:05:47;;;;;;;39.90;23.27;;;;;;;-1.81;65.03;97898.03;10325118;28;20053;-49
2024/01/13 17:10:47;;;;;;;47.05;26.80;;;;;;;-1.91;65.08;97883.97;10325260;28;20117;-49
2024/01/13 17:15:46;;;;;;;114.35;61.28;;;;;;;-1.89;64.95;97900.16;10325157;28;20060;-49
2024/01/13 17:20:45;;;;;;;62.85;36.38;;;;;;;-2.03;65.22;97885.88;10324797;28;20037;-51
2024/01/13 17:25:44;;;;;;;;;;;;;;;-1.95;64.88;97887.16;10325434;28;20077;-49
2024/01/13 17:30:43;;;;;;;51.55;27.60;;;;;;;-2.12;65.69;97882.09;10323149;28;19953;-48
2024/01/13 17:35:43;;;;;;;41.92;25.05;;;;;;;-2.17;65.33;97897.91;10322278;28;20064;-48
2024/01/13 17:40:42;;;;;;;44.20;25.15;;;;;;;-2.46;65.92;97871.00;10324160;28;20051;-51
2024/01/13 17:45:41;;;;;;;43.30;25.65;;;;;;;-2.38;65.84;97895.13;10323784;28;20069;-51
2024/01/13 17:50:40;;;;;;;45.10;27.63;;;;;;;-2.61;66.40;97871.97;10321238;28;20039;-47
2024/01/13 17:55:39;;;;;;;48.85;28.13;;;;;;;-2.56;66.14;97890.84;10320922;28;20033;-52
2024/01/13 18:00:38;;;;;;;70.55;42.08;;;;;;;-2.63;67.07;97886.25;10323345;28;20112;-48
2024/01/13 18:05:37;;;;;;;79.28;44.83;;;;;;;-3.01;67.06;97814.00;10323893;28;20116;-48
2024/01/13 18:10:36;;;;;;;70.97;40.58;;;;;;;-2.96;67.30;97853.19;10323290;28;20113;-47
2024/01/13 18:15:35;;;;;;;67.10;34.67;;;;;;;-2.88;67.32;97878.13;10323408;28;20053;-50
2024/01/13 18:20:34;;;;;;;70.22;39.80;;;;;;;-2.95;67.62;97874.38;10321668;28;20116;-47
2024/01/13 18:25:33;;;;;;;69.53;39.15;;;;;;;-3.17;68.20;97841.91;10321582;28;20120;-47
2024/01/13 18:30:32;;;;;;;79.97;43.42;;;;;;;-3.12;68.25;97856.56;10321074;28;20116;-49
2024/01/13 18:35:31;;;;;;;80.88;45.67;;;;;;;-3.13;68.33;97870.06;10321098;28;20069;-47
2024/01/13 18:40:30;;;;;;;;;;;;;;;-3.12;68.37;97863.31;10320346;28;20061;-50
2024/01/13 18:45:28;;;;;;;70.55;39.42;;;;;;;-3.20;69.66;97860.38;10321898;28;20298;-48
2024/01/13 18:50:27;;;;;;;72.22;43.00;;;;;;;-3.29;69.53;97853.94;10319837;28;20109;-47
2024/01/13 18:55:26;;;;;;;70.72;40.75;;;;;;;-3.35;69.35;97845.19;10320710;28;20026;-48
2024/01/13 19:00:25;;;;;;;90.75;49.47;;;;;;;-3.35;69.21;97859.53;10319842;28;20036;-48
2024/01/13 19:05:25;;;;;;;78.22;47.28;;;;;;;-4.00;68.97;97758.75;10320663;28;20429;-48
2024/01/13 19:10:25;;;;;;;86.93;45.88;;;;;;;-3.69;69.69;97818.75;10320169;28;20140;-47
2024/01/13 19:15:24;;;;;;;96.00;53.00;;;;;;;-3.94;69.99;97789.50;10320520;28;20120;-49
2024/01/13 19:20:23;;;;;;;97.90;53.63;;;;;;;-3.73;70.31;97824.47;10320501;28;20822;-48
2024/01/13 19:25:22;;;;;;;54.42;27.88;;;;;;;-3.59;70.77;97854.00;10320134;28;20124;-47
2024/01/13 19:30:22;;;;;;;49.90;30.08;;;;;;;-3.84;71.34;97801.91;10320012;28;20034;-48
2024/01/13 19:35:21;;;;;;;35.67;18.13;;;;;;;-3.52;71.53;97861.16;10318474;28;20148;-50
2024/01/13 19:40:20;;;;;;;68.53;37.08;;;;;;;-3.50;70.53;97857.03;10319236;28;20025;-48
2024/01/13 19:45:19;;;;;;;136.68;69.13;;;;;;;-3.58;71.34;97873.47;10320403;28;20124;-50
2024/01/13 19:50:18;;;;;;;136.80;70.15;;;;;;;-3.86;71.73;97866.84;10315615;28;20050;-47
2024/01/13 19:55:17;;;;;;;;;;;;;;;-3.90;73.24;97871.66;10318692;28;20068;-48
2024/01/13 20:00:17;;;;;;;95.43;51.40;;;;;;;-3.91;71.75;97858.13;10319367;28;20415;-51
2024/01/13 20:05:16;;;;;;;115.47;62.95;;;;;;;-3.98;71.78;97856.03;10319446;28;20107;-47
2024/01/13 20:10:15;;;;;;;135.20;70.32;;;;;;;-4.38;72.81;97782.78;10318675;28;20029;-51
2024/01/13 20:15:16;;;;;;;127.03;65.75;;;;;;;-4.35;72.04;97790.56;10319300;28;20068;-50
2024/01/13 20:20:19;;;;;;;108.90;58.35;;;;;;;-4.37;72.54;97799.75;10317347;28;20069;-48
2024/01/13 20:25:18;;;;;;;111.43;58.22;;;;;;;-4.44;73.41;97811.19;10318560;28;20076;-48
2024/01/13 20:30:17;;;;;;;98.43;54.35;;;;;;;-4.26;73.88;97835.81;10317361;28;20029;-47
2024/01/13 20:35:16;;;;;;;88.13;47.65;;;;;;;-4.73;74.21;97789.22;10318517;28;20506;-47
2024/01/13 20:40:15;;;;;;;86.60;46.47;;;;;;;-4.93;73.95;97749.22;10318549;28;20025;-47
2024/01/13 20:45:14;;;;;;;;;;;;;;;-4.42;74.16;97818.84;10319616;28;20073;-49
2024/01/13 20:50:13;;;;;;;109.57;53.13;;;;;;;-4.64;72.70;97796.47;10317257;28;19917;-48
2024/01/13 20:55:12;;;;;;;;;;;;;;;-4.46;73.87;97815.28;10319476;28;20091;-48
2024/01/13 21:00:11;;;;;;;101.33;50.97;;;;;;;-4.51;73.49;97831.88;10319056;28;19913;-49
2024/01/13 21:05:11;;;;;;;119.75;59.33;;;;;;;-4.64;73.73;97806.63;10321832;28;20506;-49
2024/01/13 21:10:10;;;;;;;139.73;62.55;;;;;;;-4.57;73.78;97805.31;10325069;28;20114;-48
2024/01/13 21:15:09;;;;;;;;;;;;;;;-4.62;74.17;97803.38;10325988;28;20407;-47
2024/01/13 21:20:09;;;;;;;120.63;59.93;;;;;;;-5.18;74.09;97722.47;10324279;28;19952;-49
2024/01/13 21:25:08;;;;;;;123.07;61.45;;;;;;;-5.99;74.67;97584.47;10319618;28;20860;-48
2024/01/13 21:30:09;;;;;;;;;;;;;;;-4.67;74.86;97797.19;10323622;28;20790;-53
2024/01/13 21:35:12;;;;;;;126.32;59.42;;;;;;;-4.84;73.92;97769.97;10323634;28;19956;-48
2024/01/13 21:40:13;;;;;;;113.50;58.28;;;;;;;-4.88;74.58;97768.06;10323804;28;20057;-47
2024/01/13 21:45:12;;;;;;;96.43;51.15;;;;;;;-4.85;75.42;97770.78;10324587;28;20072;-49
2024/01/13 21:50:12;;;;;;;;;;;;;;;-4.90;74.91;97751.94;10320632;28;20073;-48
2024/01/13 21:55:11;;;;;;;89.07;47.33;;;;;;;-4.92;75.61;97754.34;10323221;28;20360;-47
2024/01/13 22:00:11;;;;;;;89.88;48.13;;;;;;;-4.93;75.63;97737.44;10322013;28;20079;-49
2024/01/13 22:05:12;;;;;;;89.40;47.42;;;;;;;-4.94;75.29;97730.59;10323649;28;20065;-49
2024/01/13 22:10:13;;;;;;;87.20;45.97;;;;;;;-5.24;75.97;97691.72;10322745;28;20128;-49
2024/01/13 22:15:12;;;;;;;69.07;37.67;;;;;;;-5.05;76.05;97729.09;10321937;28;20099;-49
2024/01/13 22:20:12;;;;;;;;;;;;;;;-5.05;76.39;97696.22;10322916;28;20105;-49
2024/01/13 22:25:11;;;;;;;;;;;;;;;-5.17;74.66;97703.09;10321217;28;20748;-48
2024/01/13 22:30:10;;;;;;;75.77;41.60;;;;;;;-6.39;75.43;97492.81;10319343;28;20774;-49
2024/01/13 22:35:09;;;;;;;80.13;42.33;;;;;;;-5.19;76.18;97703.00;10321500;28;20073;-48
2024/01/13 22:40:09;;;;;;;94.40;47.75;;;;;;;-5.40;75.72;97676.44;10320100;28;20065;-49
2024/01/13 22:45:08;;;;;;;98.65;51.90;;;;;;;-5.28;76.13;97688.16;10321021;28;20093;-48
2024/01/13 22:50:08;;;;;;;;;;;;;;;-5.20;75.66;97686.06;10322638;28;20467;-49
2024/01/13 22:55:07;;;;;;;101.65;53.83;;;;;;;-5.71;77.06;97597.09;10321097;28;19960;-48
2024/01/13 23:00:26;;;;;;;104.38;53.17;;;;;;;-5.23;75.92;97660.59;10321337;28;20065;-49